Time;durP1;ratioP1;P1;durP2;ratioP2;P2;SDS_P1;SDS_P2;PMS_P1;PMS_P2;Temp;Humidity;BMP_temperature;BMP_pressure;BME280_temperature;BME280_humidity;BME280_pressure;Samples;Min_cycle;Max_cycle;Signal;HPM_P1;HPM_P2
2023/08/31 00:01:09;;;;;;;;;3.67;1.33;;;;;27.32;38.88;101011.53;5116353;27;45529;-75
2023/08/31 00:03:34;;;;;;;;;3.00;3.00;;;;;27.33;38.71;101015.81;5116243;27;46451;-75
2023/08/31 00:06:02;;;;;;;;;3.00;3.00;;;;;27.38;38.74;101032.03;5097536;27;45482;-75
2023/08/31 00:08:28;;;;;;;;;2.00;2.00;;;;;27.34;39.15;101022.81;5116129;27;45348;-75
2023/08/31 00:11:00;;;;;;;;;2.00;2.00;;;;;27.32;38.74;101016.88;5114304;27;45440;-77
2023/08/31 00:13:27;;;;;;;;;2.00;2.00;;;;;27.40;39.09;101035.34;5113008;27;46466;-75
2023/08/31 00:15:57;;;;;;;;;4.00;4.00;;;;;27.31;39.23;101010.69;5119820;27;45343;-75
2023/08/31 00:18:22;;;;;;;;;3.00;2.33;;;;;27.40;38.83;101024.66;5119196;27;45449;-75
2023/08/31 00:20:48;;;;;;;;;3.00;3.00;;;;;27.33;38.78;101019.31;5119606;27;45648;-75
2023/08/31 00:23:13;;;;;;;;;1.00;1.00;;;;;27.39;38.58;101036.34;5119536;27;45962;-75
2023/08/31 00:25:38;;;;;;;;;5.00;2.67;;;;;27.37;38.53;101039.25;5100745;27;45432;-75
2023/08/31 00:28:04;;;;;;;;;2.67;2.67;;;;;27.36;38.72;101029.59;5119625;27;45860;-75
2023/08/31 00:30:33;;;;;;;;;0.00;0.00;;;;;27.31;39.14;101026.72;5119053;27;45612;-75
2023/08/31 00:33:01;;;;;;;;;3.00;3.00;;;;;27.32;38.77;101027.56;5119580;27;45989;-75
2023/08/31 00:35:27;;;;;;;;;2.00;2.00;;;;;27.30;38.72;101025.06;5119698;27;45391;-75
2023/08/31 00:38:00;;;;;;;;;4.00;2.00;;;;;27.32;38.61;101023.03;5119477;27;45337;-75
2023/08/31 00:40:25;;;;;;;;;2.00;2.00;;;;;27.36;39.03;101024.25;5118740;27;45586;-75
2023/08/31 00:42:51;;;;;;;;;2.67;2.67;;;;;27.33;39.00;101024.66;5119087;27;46097;-75
2023/08/31 00:45:17;;;;;;;;;1.00;1.00;;;;;27.30;39.14;101019.75;5119026;27;45382;-75
2023/08/31 00:47:43;;;;;;;;;3.00;2.00;;;;;27.31;39.33;101024.06;5119411;27;45300;-75
2023/08/31 00:50:09;;;;;;;;;3.67;3.67;;;;;27.31;39.03;101017.88;5119079;27;45394;-75
2023/08/31 00:52:34;;;;;;;;;2.67;2.00;;;;;27.32;38.84;101025.72;5118775;27;45486;-75
2023/08/31 00:55:05;;;;;;;;;2.00;2.00;;;;;27.34;38.74;101030.84;5118932;27;45340;-75
2023/08/31 00:57:30;;;;;;;;;3.00;2.00;;;;;27.33;39.10;101029.19;5119253;27;45611;-74
2023/08/31 00:59:56;;;;;;;;;2.00;2.00;;;;;27.32;39.22;101040.91;5119062;27;45516;-75
2023/08/31 01:02:34;;;;;;;;;2.00;2.00;;;;;27.37;38.94;101043.78;5119150;27;46538;-75
2023/08/31 01:05:08;;;;;;;;;2.00;2.00;;;;;27.37;39.21;101041.91;5118043;27;45516;-75
2023/08/31 01:07:33;;;;;;;;;3.00;3.00;;;;;27.36;38.89;101032.25;5119010;27;45293;-75
2023/08/31 01:10:21;;;;;;;;;1.67;1.67;;;;;27.30;39.08;101025.06;5118552;27;45250;-75
2023/08/31 01:12:52;;;;;;;;;2.00;2.00;;;;;27.37;38.92;101027.75;5115351;27;46466;-75
2023/08/31 01:15:18;;;;;;;;;3.00;2.00;;;;;27.38;38.76;101024.03;5118724;27;45978;-75
2023/08/31 01:17:49;;;;;;;;;1.33;1.33;;;;;27.31;38.74;101018.72;5119013;27;45382;-75
2023/08/31 01:20:20;;;;;;;;;1.00;1.00;;;;;27.31;38.53;101015.22;5118311;27;45370;-75
2023/08/31 01:22:57;;;;;;;;;2.33;1.00;;;;;27.37;38.51;101035.75;5118006;27;45372;-75
2023/08/31 01:25:24;;;;;;;;;2.00;2.00;;;;;27.34;39.14;101020.97;5116832;27;45483;-75
2023/08/31 01:27:51;;;;;;;;;1.33;1.33;;;;;27.28;39.15;101006.59;5118780;27;45450;-75
2023/08/31 01:30:17;;;;;;;;;2.00;2.00;;;;;27.36;38.81;101015.41;5118516;27;45298;-75
2023/08/31 01:32:45;;;;;;;;;3.00;2.00;;;;;27.33;38.92;101016.66;5118662;27;46543;-75
2023/08/31 01:35:13;;;;;;;;;1.67;1.67;;;;;27.24;38.61;101000.06;5118552;27;45250;-75
2023/08/31 01:37:45;;;;;;;;;1.67;1.67;;;;;27.32;38.75;101012.34;5118673;27;45352;-75
2023/08/31 01:40:19;;;;;;;;;3.00;3.00;;;;;27.29;39.08;101010.94;5118298;27;45635;-75
2023/08/31 01:42:46;;;;;;;;;2.00;1.00;;;;;27.29;39.01;101008.25;5117947;27;46227;-75
2023/08/31 01:45:15;;;;;;;;;1.00;1.00;;;;;27.30;38.59;101009.06;5099419;27;45343;-75
2023/08/31 01:47:40;;;;;;;;;2.00;2.00;;;;;27.31;38.50;101010.69;5118192;27;45444;-75
2023/08/31 01:50:06;;;;;;;;;3.33;2.33;;;;;27.30;38.71;101006.38;5118377;27;45399;-75
2023/08/31 01:52:31;;;;;;;;;1.00;1.00;;;;;27.33;38.79;101015.81;5118011;27;46381;-75
2023/08/31 01:54:57;;;;;;;;;1.33;1.00;;;;;27.28;39.17;101009.28;5099395;27;45393;-76
2023/08/31 01:57:22;;;;;;;;;2.00;2.00;;;;;27.26;38.53;101003.34;5118162;27;45447;-75
2023/08/31 01:59:47;;;;;;;;;3.00;2.33;;;;;27.31;38.61;101015.22;5098713;27;45560;-75
2023/08/31 02:02:14;;;;;;;;;2.00;2.00;;;;;27.27;38.68;101012.97;5117923;27;46641;-75
2023/08/31 02:04:40;;;;;;;;;3.00;3.00;;;;;27.31;39.13;101018.72;5117786;27;45475;-75
2023/08/31 02:07:05;;;;;;;;;1.00;1.00;;;;;27.33;38.92;101023.84;5117189;27;45805;-75
2023/08/31 02:09:30;;;;;;;;;2.00;2.00;;;;;27.32;38.38;101033.72;5099628;27;45446;-75
2023/08/31 02:11:56;;;;;;;;;3.67;1.67;;;;;27.33;39.07;101030.00;5117791;27;45349;-76
2023/08/31 02:14:22;;;;;;;;;3.00;1.00;;;;;27.30;38.43;101025.06;5117815;27;45393;-75
2023/08/31 02:16:47;;;;;;;;;3.00;2.00;;;;;27.33;38.89;101027.34;5118058;27;45324;-75
2023/08/31 02:19:13;;;;;;;;;2.00;2.00;;;;;27.24;38.57;101001.91;5117891;27;45372;-75
2023/08/31 02:21:38;;;;;;;;;3.00;1.00;;;;;27.25;38.53;101006.19;5117589;27;45462;-75
2023/08/31 02:24:04;;;;;;;;;3.00;2.00;;;;;27.25;38.43;101008.88;5117902;27;45406;-75
2023/08/31 02:26:29;;;;;;;;;1.67;1.67;;;;;27.31;38.92;101018.72;5099226;27;45421;-75
2023/08/31 02:28:55;;;;;;;;;2.00;2.00;;;;;27.26;39.21;101006.00;5099406;27;45409;-75
2023/08/31 02:31:20;;;;;;;;;1.33;1.33;;;;;27.33;38.42;101016.66;5117567;27;46422;-75
2023/08/31 02:33:49;;;;;;;;;1.00;1.00;;;;;27.33;38.39;101023.84;5117591;27;45399;-75
2023/08/31 02:36:15;;;;;;;;;1.67;1.67;;;;;27.24;39.00;101009.91;5117084;27;45362;-75
2023/08/31 02:38:40;;;;;;;;;2.67;2.67;;;;;27.22;38.57;101007.44;5117159;27;45262;-75
2023/08/31 02:41:05;;;;;;;;;2.00;2.00;;;;;27.25;38.44;101007.03;5116989;27;46542;-75
2023/08/31 02:43:31;;;;;;;;;1.00;1.00;;;;;27.29;38.90;101010.09;5117198;27;45335;-75
2023/08/31 02:46:03;;;;;;;;;2.00;1.00;;;;;27.26;38.57;101006.00;5117109;27;45215;-75
2023/08/31 02:48:29;;;;;;;;;1.33;1.33;;;;;27.16;38.87;100997.63;5117148;27;45684;-75
2023/08/31 02:50:57;;;;;;;;;1.00;1.00;;;;;27.25;38.77;101012.38;5116587;27;45477;-75
2023/08/31 02:53:23;;;;;;;;;3.00;2.00;;;;;27.28;38.52;101014.63;5117208;27;45395;-75
2023/08/31 02:55:50;;;;;;;;;2.00;2.00;;;;;27.20;38.56;101006.84;5098740;27;45405;-75
2023/08/31 02:58:16;;;;;;;;;2.67;1.00;;;;;27.25;38.96;101009.69;5117280;27;45346;-75
2023/08/31 03:00:42;;;;;;;;;1.67;1.67;;;;;27.26;38.66;101010.53;5098448;27;46518;-75
2023/08/31 03:03:08;;;;;;;;;2.00;2.00;;;;;27.19;39.07;100994.53;5116267;27;45294;-75
2023/08/31 03:05:33;;;;;;;;;2.00;2.00;;;;;27.20;39.06;100998.81;5116893;27;45344;-76
2023/08/31 03:07:59;;;;;;;;;1.00;1.00;;;;;27.24;38.85;100996.56;5098667;27;45620;-76
2023/08/31 03:10:24;;;;;;;;;3.00;1.00;;;;;27.28;39.12;101000.44;5117087;27;46387;-75
2023/08/31 03:12:50;;;;;;;;;1.00;1.00;;;;;27.26;38.62;100997.16;5117145;27;45277;-75
2023/08/31 03:15:15;;;;;;;;;1.00;1.00;;;;;27.26;39.10;100994.50;5117214;27;45285;-75
2023/08/31 03:17:40;;;;;;;;;0.00;0.00;;;;;27.23;39.01;100986.91;5117031;27;45449;-75
2023/08/31 03:20:07;;;;;;;;;1.67;1.00;;;;;27.25;38.58;100988.31;5116628;27;46419;-75
2023/08/31 03:22:32;;;;;;;;;2.00;2.00;;;;;27.24;38.99;100991.22;5098631;27;45311;-75
2023/08/31 03:24:57;;;;;;;;;2.67;2.00;;;;;27.27;38.70;100985.47;5117005;27;45277;-75
2023/08/31 03:27:23;;;;;;;;;3.00;3.00;;;;;27.19;38.50;100981.19;5098288;27;45293;-75
2023/08/31 03:29:48;;;;;;;;;1.00;1.00;;;;;27.22;38.99;100982.59;5115580;27;45508;-75
2023/08/31 03:32:13;;;;;;;;;1.67;0.00;;;;;27.26;38.56;100983.81;5116550;27;45234;-76
2023/08/31 03:34:39;;;;;;;;;2.00;1.00;;;;;27.26;38.69;100989.97;5116361;27;46024;-76
2023/08/31 03:37:04;;;;;;;;;1.33;1.00;;;;;27.22;38.50;100985.28;5115842;27;45661;-76
2023/08/31 03:39:29;;;;;;;;;2.67;2.00;;;;;27.23;39.15;100978.88;5115340;27;45357;-75
2023/08/31 03:41:55;;;;;;;;;3.00;3.00;;;;;27.24;38.54;100985.88;5094332;27;45361;-75
2023/08/31 03:44:21;;;;;;;;;1.00;1.00;;;;;27.27;38.74;100988.13;5096049;27;45347;-75
2023/08/31 03:46:46;;;;;;;;;1.67;1.00;;;;;27.27;38.99;100993.47;5096881;27;45639;-75
2023/08/31 03:49:12;;;;;;;;;2.00;2.00;;;;;27.22;38.67;100985.28;5097606;27;46302;-75
2023/08/31 03:51:37;;;;;;;;;2.00;2.00;;;;;27.27;38.50;100993.47;5081111;27;45508;-75
2023/08/31 03:54:02;;;;;;;;;1.00;1.00;;;;;27.21;38.93;100983.63;5099470;27;45369;-75
2023/08/31 03:56:28;;;;;;;;;0.00;0.00;;;;;27.19;38.56;100975.84;5081049;27;45362;-75
2023/08/31 03:58:53;;;;;;;;;2.00;2.00;;;;;27.23;38.44;100985.06;5113815;27;45538;-75
2023/08/31 04:01:19;;;;;;;;;2.00;2.00;;;;;27.22;38.71;100975.38;5101383;27;45417;-75
2023/08/31 04:03:44;;;;;;;;;3.00;3.00;;;;;27.22;39.15;100980.72;5119670;27;45296;-75
2023/08/31 04:06:10;;;;;;;;;2.00;1.00;;;;;27.23;38.71;100977.03;5120175;27;45442;-75
2023/08/31 04:08:35;;;;;;;;;2.00;2.00;;;;;27.24;38.75;100983.22;5101539;27;46725;-75
2023/08/31 04:11:00;;;;;;;;;3.33;1.00;;;;;27.25;38.90;100987.50;5120187;27;45183;-75
2023/08/31 04:13:26;;;;;;;;;2.00;2.00;;;;;27.24;39.01;100985.88;5101565;27;45586;-75
2023/08/31 04:15:53;;;;;;;;;1.67;1.67;;;;;27.24;39.10;100992.03;5101112;27;45567;-75
2023/08/31 04:18:18;;;;;;;;;1.67;1.67;;;;;27.16;39.00;100977.09;5119500;27;46246;-75
2023/08/31 04:20:51;;;;;;;;;1.00;1.00;;;;;27.21;38.91;100978.28;5119625;27;45405;-75
2023/08/31 04:23:20;;;;;;;;;1.00;1.00;;;;;27.22;38.80;100982.59;5119830;27;45340;-76
2023/08/31 04:25:47;;;;;;;;;1.67;0.67;;;;;27.26;38.54;100989.97;5119559;27;45418;-75
2023/08/31 04:28:12;;;;;;;;;1.00;1.00;;;;;27.22;39.00;100990.63;5119560;27;47463;-75
2023/08/31 04:30:40;;;;;;;;;1.00;1.00;;;;;27.25;38.62;100992.84;5100783;27;45455;-75
2023/08/31 04:33:06;;;;;;;;;4.33;2.00;;;;;27.25;38.44;100998.19;5119034;27;45355;-75
2023/08/31 04:35:31;;;;;;;;;1.33;0.67;;;;;27.23;38.99;100997.59;5100864;27;45325;-76
2023/08/31 04:37:57;;;;;;;;;1.00;1.00;;;;;27.23;38.62;100995.75;5100809;27;45405;-76
2023/08/31 04:40:24;;;;;;;;;0.33;0.33;;;;;27.18;38.82;100982.19;5119635;27;45400;-75
2023/08/31 04:42:49;;;;;;;;;1.33;1.33;;;;;27.23;38.54;100984.22;5118457;27;45344;-75
2023/08/31 04:45:15;;;;;;;;;1.00;1.00;;;;;27.19;38.75;100975.84;5119385;27;45288;-75
2023/08/31 04:47:41;;;;;;;;;1.00;1.00;;;;;27.27;39.12;100988.13;5118836;27;47059;-75
2023/08/31 04:50:07;;;;;;;;;1.00;1.00;;;;;27.22;38.62;100990.63;5119037;27;45301;-76
2023/08/31 04:52:33;;;;;;;;;2.00;1.00;;;;;27.17;38.64;100986.72;5119136;27;45318;-74
2023/08/31 04:55:00;;;;;;;;;1.00;1.00;;;;;27.20;38.60;100990.00;5119383;27;45339;-75
2023/08/31 04:57:26;;;;;;;;;1.00;1.00;;;;;27.21;38.58;100984.44;5118706;27;45289;-76
2023/08/31 04:59:51;;;;;;;;;3.00;0.67;;;;;27.25;39.25;101009.69;5118844;27;45363;-75
2023/08/31 05:02:16;;;;;;;;;1.00;1.00;;;;;27.21;38.48;101005.81;5118973;27;45364;-75
2023/08/31 05:04:42;;;;;;;;;1.00;1.00;;;;;27.26;38.39;101019.34;5118977;27;45180;-75
2023/08/31 05:07:07;;;;;;;;;2.00;2.00;;;;;27.20;38.63;101004.16;5118949;27;45530;-75
2023/08/31 05:09:34;;;;;;;;;1.00;1.00;;;;;27.15;38.98;101010.16;5118882;27;45292;-75
2023/08/31 05:12:00;;;;;;;;;2.00;1.33;;;;;27.22;38.59;101012.78;5119076;27;45351;-75
2023/08/31 05:14:26;;;;;;;;;1.00;1.00;;;;;27.23;38.61;101008.25;5118660;27;45361;-75
2023/08/31 05:16:51;;;;;;;;;1.67;1.67;;;;;27.18;39.09;101009.72;5100000;27;47016;-75
2023/08/31 05:19:16;;;;;;;;;1.00;1.00;;;;;27.17;38.81;101008.09;5118661;27;45375;-75
2023/08/31 05:21:42;;;;;;;;;1.67;1.67;;;;;27.21;38.80;101021.84;5118838;27;45370;-72
2023/08/31 05:24:07;;;;;;;;;1.00;1.00;;;;;27.16;38.59;101017.16;5118704;27;45521;-74
2023/08/31 05:26:33;;;;;;;;;2.00;1.33;;;;;27.17;39.36;101012.59;5118633;27;45456;-75
2023/08/31 05:28:58;;;;;;;;;1.33;1.33;;;;;27.18;39.18;101015.06;5100191;27;45481;-75
2023/08/31 05:31:24;;;;;;;;;1.67;1.67;;;;;27.21;38.86;101021.03;5118101;27;45399;-78
2023/08/31 05:33:49;;;;;;;;;1.00;1.00;;;;;27.25;38.92;101027.56;5117992;27;45368;-77
2023/08/31 05:36:14;;;;;;;;;0.00;0.00;;;;;27.22;39.35;101022.66;5110067;27;45702;-77
2023/08/31 05:38:40;;;;;;;;;1.00;1.00;;;;;27.21;39.50;101021.84;5117382;27;45356;-75
2023/08/31 05:41:06;;;;;;;;;2.00;2.00;;;;;27.17;38.89;101012.59;5095502;27;45495;-75
2023/08/31 05:43:34;;;;;;;;;1.00;1.00;;;;;27.22;39.38;101022.66;5078910;27;45764;-85
2023/08/31 05:45:59;;;;;;;;;1.33;1.33;;;;;27.26;39.84;101026.53;5096638;27;45433;-76
2023/08/31 05:48:24;;;;;;;;;2.00;2.00;;;;;27.23;39.76;101021.63;5078566;27;45427;-75
2023/08/31 05:50:50;;;;;;;;;1.00;1.00;;;;;27.27;39.09;101033.53;5097773;27;45375;-76
2023/08/31 05:53:15;;;;;;;;;1.00;1.00;;;;;27.28;39.59;101032.50;5097736;27;45594;-76
2023/08/31 05:55:40;;;;;;;;;1.00;1.00;;;;;27.31;39.83;101033.91;5101277;27;46185;-79
2023/08/31 05:58:06;;;;;;;;;1.67;1.67;;;;;27.24;39.26;101020.59;5112117;27;45625;-79
2023/08/31 06:00:31;;;;;;;;;3.00;1.67;;;;;27.25;39.08;101025.72;5099166;27;45402;-78
2023/08/31 06:02:56;;;;;;;;;2.00;2.00;;;;;27.28;39.13;101027.97;5117950;27;45574;-77
2023/08/31 06:05:22;;;;;;;;;2.33;2.00;;;;;27.27;39.09;101029.00;5117547;27;46740;-81
2023/08/31 06:07:47;;;;;;;;;2.00;0.33;;;;;27.31;39.15;101039.25;5117968;27;45333;-79
2023/08/31 06:10:14;;;;;;;;;1.33;1.00;;;;;27.28;39.06;101033.31;5116658;27;45342;-78
2023/08/31 06:12:40;;;;;;;;;1.00;1.00;;;;;27.28;39.58;101044.00;5117879;27;45323;-82
2023/08/31 06:15:06;;;;;;;;;2.00;2.00;;;;;27.28;39.02;101037.84;5098645;27;45784;-74
2023/08/31 06:17:31;;;;;;;;;1.00;1.00;;;;;27.31;39.07;101047.28;5117977;27;45203;-76
2023/08/31 06:19:57;;;;;;;;;2.00;1.00;;;;;27.33;39.60;101047.88;5099460;27;45354;-76
2023/08/31 06:22:24;;;;;;;;;1.00;1.00;;;;;27.31;39.37;101055.28;5118161;27;45238;-77
2023/08/31 06:24:49;;;;;;;;;3.00;2.00;;;;;27.27;39.19;101054.91;5117092;27;45500;-75
2023/08/31 06:27:16;;;;;;;;;1.00;1.00;;;;;27.32;39.84;101060.44;5099196;27;45374;-80
2023/08/31 06:29:42;;;;;;;;;2.00;1.00;;;;;27.29;39.86;101061.69;5117450;27;45371;-81
2023/08/31 06:32:07;;;;;;;;;2.00;2.00;;;;;27.31;39.14;101068.66;5117580;27;45504;-79
2023/08/31 06:34:32;;;;;;;;;3.00;2.00;;;;;27.28;39.52;101073.38;5099002;27;46433;-79
2023/08/31 06:36:58;;;;;;;;;4.00;2.00;;;;;27.20;39.62;101049.56;5098884;27;45762;-79
2023/08/31 06:39:24;;;;;;;;;1.00;1.00;;;;;27.31;39.19;101076.66;5116763;27;45450;-79
2023/08/31 06:41:49;;;;;;;;;2.33;1.00;;;;;27.35;39.88;101078.69;5098868;27;45613;-79
2023/08/31 06:44:15;;;;;;;;;0.00;0.00;;;;;27.25;39.14;101064.97;5116831;27;46162;-79
2023/08/31 06:46:40;;;;;;;;;2.00;0.67;;;;;27.28;39.19;101072.56;5116995;27;45403;-79
2023/08/31 06:49:05;;;;;;;;;0.67;0.33;;;;;27.28;39.63;101078.72;5117457;27;45290;-78
2023/08/31 06:51:34;;;;;;;;;1.00;1.00;;;;;27.27;39.62;101074.41;5115867;27;45356;-79
2023/08/31 06:54:05;;;;;;;;;1.33;1.33;;;;;27.31;39.69;101084.66;5117048;27;47463;-79
2023/08/31 06:56:32;;;;;;;;;2.00;1.00;;;;;27.29;39.33;101074.22;5117078;27;45259;-79
2023/08/31 06:58:58;;;;;;;;;1.00;1.00;;;;;27.29;39.40;101077.72;5116697;27;45227;-78
2023/08/31 07:01:23;;;;;;;;;2.00;1.33;;;;;27.26;39.02;101078.13;5117124;27;45633;-78
2023/08/31 07:03:48;;;;;;;;;2.00;2.00;;;;;27.34;39.10;101090.44;5116065;27;45804;-79
2023/08/31 07:06:14;;;;;;;;;2.33;2.33;;;;;27.31;39.60;101084.66;5098285;27;45292;-79
2023/08/31 07:08:40;;;;;;;;;1.33;0.67;;;;;27.32;39.24;101086.31;5098575;27;45411;-78
2023/08/31 07:11:06;;;;;;;;;2.00;2.00;;;;;27.32;39.58;101095.16;5117101;27;45653;-79
2023/08/31 07:13:32;;;;;;;;;1.00;1.00;;;;;27.27;39.39;101097.66;5098077;27;47211;-78
2023/08/31 07:15:57;;;;;;;;;2.00;2.00;;;;;27.25;39.25;101089.00;5098453;27;45317;-79
2023/08/31 07:18:22;;;;;;;;;0.00;0.00;;;;;27.26;39.03;101087.97;5117903;27;45416;-79
2023/08/31 07:20:48;;;;;;;;;4.00;2.00;;;;;27.25;39.67;101083.66;5116024;27;45420;-79
2023/08/31 07:23:15;;;;;;;;;1.00;0.00;;;;;27.27;39.16;101082.41;5097642;27;46516;-80
2023/08/31 07:25:40;;;;;;;;;1.67;1.67;;;;;27.20;39.33;101070.94;5097653;27;45352;-79
2023/08/31 07:28:05;;;;;;;;;1.67;1.67;;;;;27.25;39.39;101072.97;5116159;27;45432;-80
2023/08/31 07:30:33;;;;;;;;;2.67;1.00;;;;;27.22;39.77;101071.53;5097060;27;45668;-79
2023/08/31 07:33:02;;;;;;;;;1.00;1.00;;;;;27.27;39.39;101079.75;5098264;27;45539;-79
2023/08/31 07:35:28;;;;;;;;;1.33;1.33;;;;;27.27;39.19;101079.75;5115808;27;45374;-79
2023/08/31 07:37:53;;;;;;;;;1.00;1.00;;;;;27.29;39.31;101087.56;5116846;27;45344;-79
2023/08/31 07:40:18;;;;;;;;;1.00;1.00;;;;;27.29;39.51;101075.03;5098256;27;45604;-79
2023/08/31 07:42:44;;;;;;;;;1.67;1.67;;;;;27.27;39.82;101070.94;5097456;27;46098;-78
2023/08/31 07:45:09;;;;;;;;;5.33;1.33;;;;;27.29;39.00;101072.38;5116217;27;45313;-79
2023/08/31 07:47:35;;;;;;;;;1.00;1.00;;;;;27.32;39.16;101080.97;5097813;27;45381;-79
2023/08/31 07:50:00;;;;;;;;;2.00;2.00;;;;;27.23;38.86;101065.19;5114337;27;45639;-79
2023/08/31 07:52:25;;;;;;;;;2.00;2.00;;;;;27.18;39.68;101052.47;5114469;27;47896;-79
2023/08/31 07:54:51;;;;;;;;;1.00;0.00;;;;;27.33;38.98;101071.91;5098042;27;45306;-79
2023/08/31 07:57:16;;;;;;;;;1.00;1.00;;;;;27.31;39.44;101066.81;5097575;27;45322;-82
2023/08/31 07:59:41;;;;;;;;;1.00;1.00;;;;;27.24;39.38;101050.81;5098091;27;45390;-82
2023/08/31 08:02:07;;;;;;;;;2.33;1.00;;;;;27.29;39.47;101060.84;5097755;27;47155;-82
2023/08/31 08:04:32;;;;;;;;;1.67;1.67;;;;;27.27;39.60;101066.38;5097716;27;45445;-81
2023/08/31 08:06:58;;;;;;;;;1.33;1.33;;;;;27.29;39.59;101063.53;5116605;27;45758;-82
2023/08/31 08:09:23;;;;;;;;;0.00;0.00;;;;;27.34;39.17;101076.25;5097553;27;45638;-80
2023/08/31 08:11:48;;;;;;;;;1.00;1.00;;;;;27.29;39.19;101069.69;5116204;27;46201;-82
2023/08/31 08:14:15;;;;;;;;;2.00;0.67;;;;;27.31;39.55;101068.66;5116421;27;45287;-81
2023/08/31 08:16:41;;;;;;;;;1.00;1.00;;;;;27.32;39.45;101062.28;5116405;27;45455;-81
2023/08/31 08:19:07;;;;;;;;;1.67;1.33;;;;;27.33;39.62;101061.22;5096905;27;45776;-81
2023/08/31 08:21:32;;;;;;;;;1.67;1.67;;;;;27.35;39.51;101064.53;5115993;27;45526;-82
2023/08/31 08:23:57;;;;;;;;;2.67;1.00;;;;;27.31;39.54;101056.13;5116049;27;45373;-82
2023/08/31 08:26:23;;;;;;;;;1.00;1.00;;;;;27.27;39.15;101054.91;5115120;27;45384;-81
2023/08/31 08:28:48;;;;;;;;;1.00;1.00;;;;;27.28;39.33;101065.38;5097577;27;45409;-82
2023/08/31 08:31:13;;;;;;;;;1.00;1.00;;;;;27.27;39.41;101060.25;5115289;27;46126;-81
2023/08/31 08:33:40;;;;;;;;;2.00;1.00;;;;;27.33;39.59;101069.25;5118301;27;45435;-82
2023/08/31 08:36:05;;;;;;;;;1.67;0.67;;;;;27.35;39.41;101075.22;5118823;27;45396;-81
2023/08/31 08:38:30;;;;;;;;;0.00;0.00;;;;;27.27;39.45;101066.38;5099768;27;45454;-81
2023/08/31 08:40:56;;;;;;;;;1.00;1.00;;;;;27.32;39.33;101075.63;5100713;27;46357;-81
2023/08/31 08:43:25;;;;;;;;;1.00;1.00;;;;;27.32;39.42;101079.13;5117951;27;45402;-79
2023/08/31 08:45:51;;;;;;;;;1.00;1.00;;;;;27.30;39.62;101073.16;5119614;27;45258;-78
2023/08/31 08:48:18;;;;;;;;;2.00;1.00;;;;;27.33;39.32;101093.28;5100554;27;45511;-79
2023/08/31 08:50:44;;;;;;;;;2.00;2.00;;;;;27.25;39.15;101081.81;5119153;27;46520;-79
2023/08/31 08:53:11;;;;;;;;;1.00;1.00;;;;;27.30;39.54;101086.53;5118576;27;45434;-79
2023/08/31 08:55:37;;;;;;;;;3.00;1.00;;;;;27.24;39.01;101084.69;5119232;27;45292;-79
2023/08/31 08:58:03;;;;;;;;;1.00;1.00;;;;;27.33;39.00;101087.94;5119029;27;45495;-79
2023/08/31 09:00:29;;;;;;;;;1.00;1.00;;;;;27.35;39.08;101089.38;5118870;27;46151;-79
2023/08/31 09:02:55;;;;;;;;;0.67;0.67;;;;;27.33;38.85;101101.31;5100681;27;45348;-79
2023/08/31 09:05:22;;;;;;;;;1.00;1.00;;;;;27.31;39.49;101088.16;5100466;27;45550;-79
2023/08/31 09:08:06;;;;;;;;;2.00;2.00;;;;;27.33;39.60;101102.13;5117469;27;45651;-79
2023/08/31 09:10:36;;;;;;;;;3.00;0.33;;;;;27.32;39.25;101092.50;5118933;27;45359;-79
2023/08/31 09:13:06;;;;;;;;;1.00;1.00;;;;;27.35;39.23;101084.03;5118754;27;45248;-79
2023/08/31 09:15:44;;;;;;;;;2.00;0.67;;;;;27.27;39.58;101065.59;5118757;27;45383;-79
2023/08/31 09:18:29;;;;;;;;;1.00;1.00;;;;;27.36;39.56;101087.53;5100445;27;45499;-78
2023/08/31 09:20:58;;;;;;;;;1.67;1.00;;;;;27.32;39.06;101084.47;5118730;27;45423;-79
2023/08/31 09:23:25;;;;;;;;;0.67;0.00;;;;;27.29;39.31;101075.03;5117900;27;45277;-78
2023/08/31 09:25:53;;;;;;;;;1.00;1.00;;;;;27.38;39.35;101088.13;5101510;27;45377;-78
2023/08/31 09:28:21;;;;;;;;;1.00;1.00;;;;;27.38;39.04;101082.78;5118982;27;45520;-79
2023/08/31 09:30:48;;;;;;;;;0.67;0.67;;;;;27.32;39.70;101070.28;5100002;27;45501;-79
2023/08/31 09:33:17;;;;;;;;;0.33;0.33;;;;;27.37;39.06;101076.66;5118504;27;45391;-79
2023/08/31 09:36:01;;;;;;;;;2.33;1.00;;;;;27.38;39.64;101074.78;5117547;27;45385;-78
2023/08/31 09:38:26;;;;;;;;;1.00;1.00;;;;;27.37;39.01;101073.16;5099944;27;45713;-79
2023/08/31 09:40:52;;;;;;;;;0.67;0.67;;;;;27.29;39.28;101064.34;5117092;27;45460;-79
2023/08/31 09:43:23;;;;;;;;;1.33;1.33;;;;;27.36;39.48;101075.00;5118305;27;45342;-78
2023/08/31 09:45:49;;;;;;;;;4.00;1.00;;;;;27.37;39.26;101075.81;5116842;27;45233;-78
2023/08/31 09:48:16;;;;;;;;;0.67;0.67;;;;;27.29;39.16;101063.53;5117541;27;45496;-79
2023/08/31 09:50:44;;;;;;;;;1.00;1.00;;;;;27.34;39.06;101071.72;5099197;27;47112;-79
2023/08/31 09:53:10;;;;;;;;;2.00;1.00;;;;;27.32;39.35;101060.44;5116465;27;45401;-79
2023/08/31 09:55:38;;;;;;;;;1.00;0.67;;;;;27.33;38.87;101070.06;5117341;27;45389;-79
2023/08/31 09:58:06;;;;;;;;;1.33;1.33;;;;;27.32;39.56;101068.44;5117999;27;45233;-79
2023/08/31 10:00:35;;;;;;;;;2.00;2.00;;;;;27.18;39.10;101043.63;5099597;27;46142;-81
2023/08/31 10:03:03;;;;;;;;;3.00;1.33;;;;;27.36;39.72;101060.81;5099549;27;45314;-81
2023/08/31 10:05:29;;;;;;;;;2.00;1.00;;;;;27.37;39.79;101065.13;5099097;27;45523;-79
2023/08/31 10:07:55;;;;;;;;;1.00;1.00;;;;;27.34;39.65;101065.56;5118068;27;45454;-79
2023/08/31 10:10:22;;;;;;;;;1.00;1.00;;;;;27.36;39.64;101069.66;5099431;27;48442;-82
2023/08/31 10:12:54;;;;;;;;;1.00;1.00;;;;;27.34;39.56;101062.88;5118081;27;45358;-81
2023/08/31 10:15:19;;;;;;;;;0.00;0.00;;;;;27.32;39.23;101059.63;5118132;27;45284;-79
2023/08/31 10:17:46;;;;;;;;;1.33;1.33;;;;;27.35;39.65;101070.69;5099481;27;45593;-79
2023/08/31 10:20:14;;;;;;;;;3.67;2.00;;;;;27.27;39.15;101054.91;5117605;27;45640;-79
2023/08/31 10:22:39;;;;;;;;;3.33;2.00;;;;;27.32;39.66;101057.75;5117882;27;45392;-79
2023/08/31 10:25:06;;;;;;;;;2.00;1.00;;;;;27.39;39.53;101063.06;5118134;27;45360;-79
2023/08/31 10:27:45;;;;;;;;;1.33;1.00;;;;;27.38;39.20;101058.75;5117891;27;45450;-79
2023/08/31 10:30:24;;;;;;;;;1.00;1.00;;;;;27.39;39.56;101057.72;5117672;27;45324;-79
2023/08/31 10:33:21;;;;;;;;;0.00;0.00;;;;;27.38;39.50;101056.06;5117660;27;45394;-79
2023/08/31 10:35:50;;;;;;;;;3.00;1.00;;;;;27.38;39.34;101056.91;5117431;27;45338;-79
2023/08/31 10:38:16;;;;;;;;;1.00;1.00;;;;;27.38;39.13;101051.56;5117986;27;45719;-79
2023/08/31 10:40:59;;;;;;;;;1.00;0.33;;;;;27.32;39.20;101033.72;5117354;27;45438;-79
2023/08/31 10:43:24;;;;;;;;;1.00;1.00;;;;;27.34;39.02;101031.66;5117588;27;45232;-79
2023/08/31 10:45:50;;;;;;;;;1.00;0.33;;;;;27.30;39.38;101017.06;5117563;27;45240;-79
2023/08/31 10:48:17;;;;;;;;;1.00;1.00;;;;;27.21;39.63;101007.66;5117490;27;45299;-79
2023/08/31 10:50:44;;;;;;;;;1.00;1.00;;;;;27.34;39.37;101025.47;5117011;27;46084;-79
2023/08/31 10:53:11;;;;;;;;;0.00;0.00;;;;;27.38;39.25;101035.53;5115966;27;45398;-80
2023/08/31 10:55:53;;;;;;;;;1.00;1.00;;;;;27.34;39.50;101022.81;5117568;27;45240;-79
2023/08/31 10:58:18;;;;;;;;;1.00;1.00;;;;;27.35;39.65;101022.59;5117142;27;45375;-79
2023/08/31 11:00:53;;;;;;;;;1.00;1.00;;;;;27.38;39.07;101021.34;5117185;27;45604;-79
2023/08/31 11:03:18;;;;;;;;;1.33;1.00;;;;;27.32;39.60;101011.53;5117157;27;45522;-79
2023/08/31 11:05:52;;;;;;;;;0.00;0.00;;;;;27.37;39.58;101015.22;5098338;27;45338;-79
2023/08/31 11:08:22;;;;;;;;;1.00;1.00;;;;;27.30;39.75;101014.41;5117231;27;45527;-79
2023/08/31 11:10:47;;;;;;;;;1.33;1.33;;;;;27.32;39.59;101014.19;5117225;27;46141;-79
2023/08/31 11:13:18;;;;;;;;;1.00;1.00;;;;;27.36;39.06;101012.72;5098535;27;45241;-78
2023/08/31 11:15:47;;;;;;;;;1.00;1.00;;;;;27.34;38.94;101014.81;5098594;27;45333;-79
2023/08/31 11:18:16;;;;;;;;;1.67;1.00;;;;;27.31;39.60;101009.88;5115519;27;45900;-79
2023/08/31 11:20:42;;;;;;;;;1.67;1.67;;;;;27.29;39.03;101008.25;5116804;27;46358;-78
2023/08/31 11:23:07;;;;;;;;;1.00;1.00;;;;;27.33;39.15;101019.31;5117064;27;45364;-78